createdAt,value
2023-05-06T00:13:27.094Z,9.8
2023-05-06T00:33:31.063Z,9.8
2023-05-06T00:53:35.317Z,9.8
2023-05-06T01:03:37.419Z,9.8
2023-05-06T01:23:42.098Z,9.6
2023-05-06T01:33:44.712Z,9.5
2023-05-06T01:43:46.509Z,9.5
2023-05-06T01:53:49.096Z,9.5
2023-05-06T02:03:51.799Z,9.5
2023-05-06T02:13:54.228Z,9.4
2023-05-06T02:44:00.322Z,9.1
2023-05-06T02:54:02.547Z,8.9
2023-05-06T03:04:04.963Z,8.8
2023-05-06T03:24:09.126Z,8.6
2023-05-06T03:34:11.336Z,8.6
2023-05-06T04:14:20.641Z,8.3
2023-05-06T04:24:22.636Z,8.4
2023-05-06T04:34:25.212Z,8.4
2023-05-06T04:54:29.032Z,8.5
2023-05-06T05:04:31.535Z,8.6
2023-05-06T05:34:38.687Z,9.2
2023-05-06T05:44:40.914Z,9.5
2023-05-06T06:04:45.260Z,10.5
2023-05-06T06:14:47.778Z,11.3
2023-05-06T06:24:50.184Z,11.8
2023-05-06T06:34:52.428Z,11.8
2023-05-06T06:44:54.902Z,12.3
2023-05-06T07:04:58.984Z,13.3
2023-05-06T07:15:01.156Z,13.9
2023-05-06T07:25:03.112Z,14.6
2023-05-06T07:35:04.817Z,15.1
2023-05-06T07:45:07.315Z,15.7
2023-05-06T07:55:09.295Z,16.1
2023-05-06T08:05:11.313Z,16.5
2023-05-06T08:25:15.792Z,16.2
2023-05-06T08:25:37.714Z,16.2
2023-05-06T08:35:25.120Z,16.6
2023-05-06T08:45:29.454Z,16.5
2023-05-06T08:55:29.751Z,16.7
2023-05-06T09:05:31.447Z,16.8
2023-05-06T09:15:33.188Z,17
2023-05-06T09:25:35.730Z,17.5
2023-05-06T09:35:38.018Z,17.7
2023-05-06T09:45:40.643Z,17.7
2023-05-06T10:05:44.332Z,18.1
2023-05-06T10:15:46.815Z,18.2
2023-05-06T10:25:48.676Z,18.4
2023-05-06T10:35:51.113Z,18.6
2023-05-06T10:45:53.069Z,18.7
2023-05-06T11:15:59.300Z,18.8
2023-05-06T11:26:01.757Z,18.7
2023-05-06T11:36:04.176Z,18.7
2023-05-06T11:46:06.693Z,18.8
2023-05-06T11:56:08.346Z,18.7
2023-05-06T12:06:10.549Z,19.1
2023-05-06T12:16:12.254Z,19.6
2023-05-06T12:26:14.725Z,19.9
2023-05-06T12:36:17.023Z,20
2023-05-06T12:46:19.282Z,20
2023-05-06T12:56:21.600Z,20.3
2023-05-06T13:06:23.366Z,20.6
2023-05-06T13:16:25.898Z,21.1
2023-05-06T13:26:28.135Z,21.1
2023-05-06T13:36:30.269Z,21.3
2023-05-06T13:46:32.559Z,21.2
2023-05-06T14:06:36.643Z,20.9
2023-05-06T14:16:39.301Z,20.8
2023-05-06T14:26:41.793Z,20.8
2023-05-06T14:36:44.368Z,20.9
2023-05-06T14:46:46.613Z,21
2023-05-06T14:56:48.621Z,20.9
2023-05-06T15:06:50.728Z,20.7
2023-05-06T15:16:52.725Z,20.6
2023-05-06T15:26:54.857Z,20.6
2023-05-06T15:36:57.438Z,20.7
2023-05-06T15:46:59.593Z,20.6
2023-05-06T15:57:04.783Z,20.4
2023-05-06T16:07:03.077Z,20.3
2023-05-06T16:17:05.220Z,20.1
2023-05-06T16:27:07.657Z,20
2023-05-06T16:37:09.753Z,19.8
2023-05-06T16:57:13.552Z,18.5
2023-05-06T17:07:16.104Z,17.1
2023-05-06T17:17:20.252Z,16.1
2023-05-06T17:27:20.292Z,15.5
2023-05-06T17:37:22.274Z,15.2
2023-05-06T17:47:24.754Z,15.1
2023-05-06T17:57:26.672Z,14.9
2023-05-06T18:07:28.937Z,14.7
2023-05-06T18:17:31.512Z,14.6
2023-05-06T18:47:38.132Z,14.6
2023-05-06T18:57:39.756Z,14.6
2023-05-06T19:07:42.293Z,14.5
2023-05-06T19:17:44.804Z,14.5
2023-05-06T19:27:46.910Z,14.5
2023-05-06T19:47:50.578Z,14.5
2023-05-06T19:57:52.438Z,14.4
2023-05-06T20:07:54.443Z,14.2
2023-05-06T20:17:56.750Z,14.2
2023-05-06T20:27:58.888Z,14.1
2023-05-06T20:38:00.786Z,14.1
2023-05-06T20:48:03.350Z,14.1
2023-05-06T20:58:05.670Z,14.1
2023-05-06T21:08:08.081Z,14.1
2023-05-06T21:18:09.920Z,14
2023-05-06T21:28:11.889Z,14
2023-05-06T21:38:13.675Z,13.9
2023-05-06T21:48:15.878Z,13.8
2023-05-06T21:58:18.019Z,13.8
2023-05-06T22:08:20.463Z,13.7
2023-05-06T22:18:23.036Z,13.7
2023-05-06T22:28:24.771Z,13.6
2023-05-06T22:38:27.063Z,13.7
2023-05-06T22:48:28.889Z,13.6
2023-05-06T22:58:30.919Z,13.5
2023-05-06T23:08:33.181Z,13.5
2023-05-06T23:18:35.497Z,13.3
2023-05-06T23:28:38.068Z,13.2
2023-05-06T23:38:40.528Z,13.3
2023-05-06T23:48:42.780Z,13.4
2023-05-06T23:58:44.598Z,13.4
